WetterOnline ( http://www.wetteronline.at )

Wetter aktuell Kassel

Aktuelles Wetter: Schauenburg-Elgershausen (317m)

6-stündlich | Neueste Meldungen
Ortszeit Temperatur Wetter
Mi, 23.01. 13:00 -4.4° C bedeckt
Mi, 23.01. 7:00 -5.6° C bedeckt
Mi, 23.01. 1:00 -5.5° C bedeckt
Di, 22.01. 19:00 -5.2° C bedeckt
Di, 22.01. 13:00 -4.7° C bedeckt
Di, 22.01. 7:00 -8.3° C leicht bewölkt
Di, 22.01. 1:00 -7.9° C wolkenlos
Mo, 21.01. 19:00 -5.4° C wolkenlos
Ortszeit Temperatur Wetter
Mi, 23.01. 18:00 -4.9° C bedeckt
Mi, 23.01. 17:50 -4.9° C bedeckt
Mi, 23.01. 17:40 -4.9° C bedeckt
Mi, 23.01. 17:30 -4.9° C bedeckt
Mi, 23.01. 17:20 -4.9° C bedeckt
Mi, 23.01. 17:10 -4.8° C bedeckt
Mi, 23.01. 17:00 -4.6° C bedeckt
Mi, 23.01. 16:30 -4.4° C bedeckt
Mi, 23.01. 16:00 -4.2° C wolkig
Mi, 23.01. 15:30 -4.0° C bewölkt
Mi, 23.01. 15:00 -3.9° C bewölkt
Ortszeit Relative Feuchte Sichtweite
Mi, 23.01. 13:00 79% 10 km
Mi, 23.01. 7:00 81% 9 km
Mi, 23.01. 1:00 80% 9 km
Di, 22.01. 19:00 81% 11 km
Di, 22.01. 13:00 87% 7 km
Di, 22.01. 7:00 90% 7 km
Di, 22.01. 1:00 90% 8 km
Mo, 21.01. 19:00 86% 12 km
Ortszeit Relative Feuchte Sichtweite
Mi, 23.01. 18:00 76% 11 km
Mi, 23.01. 17:50 76% -
Mi, 23.01. 17:40 78% -
Mi, 23.01. 17:30 78% 12 km
Mi, 23.01. 17:20 78% -
Mi, 23.01. 17:10 79% -
Mi, 23.01. 17:00 78% 13 km
Mi, 23.01. 16:30 78% 11 km
Mi, 23.01. 16:00 79% 11 km
Mi, 23.01. 15:30 77% 10 km
Mi, 23.01. 15:00 76% 11 km
Ortszeit Niederschlagsmenge Niederschlagsart
Mi, 23.01. 13:00 0.0 l/m2 in 6 Std. -
Mi, 23.01. 7:00 0.0 l/m2 in 12 Std. -
Mi, 23.01. 1:00 0.0 l/m2 in 6 Std. -
Di, 22.01. 19:00 0.1 l/m2 in 12 Std. -
Di, 22.01. 13:00 0.1 l/m2 in 6 Std. Schnee
Di, 22.01. 7:00 0.0 l/m2 in 12 Std. -
Di, 22.01. 1:00 0.0 l/m2 in 6 Std. -
Mo, 21.01. 19:00 0.0 l/m2 in 12 Std. -
Ortszeit Niederschlagsmenge Niederschlagsart
Mi, 23.01. 18:00 0.0 l/m2 in 1 Std. -
Mi, 23.01. 17:50 keine Meldung -
Mi, 23.01. 17:40 keine Meldung -
Mi, 23.01. 17:30 0.0 l/m2 in 1 Std. -
Mi, 23.01. 17:20 keine Meldung -
Mi, 23.01. 17:10 keine Meldung -
Mi, 23.01. 17:00 0.0 l/m2 in 1 Std. -
Mi, 23.01. 16:30 0.0 l/m2 in 1 Std. -
Mi, 23.01. 16:00 0.0 l/m2 in 1 Std. -
Mi, 23.01. 15:30 0.0 l/m2 in 1 Std. -
Mi, 23.01. 15:00 0.0 l/m2 in 1 Std. -
Ortszeit Stärke Spitze Richtung
km/h Bft. km/h Grad Sektor
Mi, 23.01. 13:00 9 2 20 90° O
Mi, 23.01. 7:00 9 2 28 140° SO
Mi, 23.01. 1:00 11 2 28 150° SO
Di, 22.01. 19:00 13 3 30 150° SO
Di, 22.01. 13:00 15 3 30 160° S
Di, 22.01. 7:00 0 0 7 - -
Di, 22.01. 1:00 0 0 11 - -
Mo, 21.01. 19:00 4 1 14 310° NW
Ortszeit Stärke Spitze Richtung
km/h Bft. km/h Grad Sektor
Mi, 23.01. 18:00 9 2 15 40° NO
Mi, 23.01. 17:50 9 2 - 40° NO
Mi, 23.01. 17:40 9 2 - 40° NO
Mi, 23.01. 17:30 6 1 9 50° NO
Mi, 23.01. 17:20 6 1 - 50° NO
Mi, 23.01. 17:10 2 1 - 50° NO
Mi, 23.01. 17:00 6 1 13 30° NO
Mi, 23.01. 16:30 7 2 14 40° NO
Mi, 23.01. 16:00 7 2 14 40° NO
Mi, 23.01. 15:30 7 2 14 50° NO
Mi, 23.01. 15:00 7 2 15 90° O
Ortszeit Untergrenze Bedeckung Gattung
total tief tief mittel hoch
Mi, 23.01. 13:00 330 m 8/8 8/8 - - -
Mi, 23.01. 7:00 360 m 8/8 8/8 - - -
Mi, 23.01. 1:00 360 m 8/8 8/8 - - -
Di, 22.01. 19:00 360 m 8/8 8/8 - - -
Di, 22.01. 13:00 210 m 8/8 8/8 - - -
Di, 22.01. 7:00 6000 m 4/8 1/8 - - -
Di, 22.01. 1:00 - 0/8 0/8 - - -
Mo, 21.01. 19:00 - 0/8 0/8 - - -
Ortszeit Bedeckungsgrad in Achtel und Wolkenuntergrenze
Mi, 23.01. 18:00 8(3300m)
Mi, 23.01. 17:50 8(3300m)
Mi, 23.01. 17:40 8(3300m)
Mi, 23.01. 17:30 8(3300m)
Mi, 23.01. 17:20 8(3300m)
Mi, 23.01. 17:10 8(3300m)
Mi, 23.01. 17:00 8(3000m) 8(8700m)
Mi, 23.01. 16:30 6(3000m) 8(3900m) 8(6300m)
Mi, 23.01. 16:00 2(390m) 8(3900m) 8(5400m)
Mi, 23.01. 15:30 6(390m) 8(3600m) 8(4200m)
Mi, 23.01. 15:00 7(390m) 8(3300m) 8(4200m)
Ortszeit Luftdruck NN (hPa) Tendenz (hPa in 3 Std.)
Mi, 23.01. 13:00 1001 - 0,2
Mi, 23.01. 7:00 1002 - 1,0
Mi, 23.01. 1:00 1004 - 1,3
Di, 22.01. 19:00 1007 - 1,4
Di, 22.01. 13:00 1011 - 2,5
Di, 22.01. 7:00 1016 - 1,8
Di, 22.01. 1:00 1020 - 1,2
Mo, 21.01. 19:00 1021 - 0,7
Ortszeit Luftdruck NN (hPa) Tendenz (hPa in 3 Std.)
Mi, 23.01. 18:00 1003 + 1,3
Mi, 23.01. 17:50 1003 keine Meldung
Mi, 23.01. 17:40 1003 keine Meldung
Mi, 23.01. 17:30 1003 + 1,5
Mi, 23.01. 17:20 1003 keine Meldung
Mi, 23.01. 17:10 1003 keine Meldung
Mi, 23.01. 17:00 1002 + 1,3
Mi, 23.01. 16:30 1002 + 0,8
Mi, 23.01. 16:00 1002 + 0,6
Mi, 23.01. 15:30 1001 + 0,2
Mi, 23.01. 15:00 1001 + 0,1
Ortszeit Schneehöhe (cm)
Mi, 23.01. 13:00 4
Mi, 23.01. 7:00 4
Mi, 23.01. 1:00 3
Di, 22.01. 19:00 3
Di, 22.01. 13:00 3
Di, 22.01. 7:00 3
Di, 22.01. 1:00 3
Mo, 21.01. 19:00 3
Ortszeit Schneehöhe (cm)
Mi, 23.01. 18:00 4
Mi, 23.01. 17:50 4
Mi, 23.01. 17:40 4
Mi, 23.01. 17:30 4
Mi, 23.01. 17:20 4
Mi, 23.01. 17:10 4
Mi, 23.01. 17:00 4
Mi, 23.01. 16:30 4
Mi, 23.01. 16:00 4
Mi, 23.01. 15:30 4
Mi, 23.01. 15:00 4
Link zu dieser Seite / Seite empfehlen

Das Wetter in ...